sensor_id;sensor_type;location;lat;lon;timestamp;P1;durP1;ratioP1;P2;durP2;ratioP2
5493;SDS011;2769;49.864;8.656;2023-04-29T00:00:54;11.53;;;8.30;;
5493;SDS011;2769;49.864;8.656;2023-04-29T00:03:22;14.00;;;8.50;;
5493;SDS011;2769;49.864;8.656;2023-04-29T00:05:54;11.30;;;8.80;;
5493;SDS011;2769;49.864;8.656;2023-04-29T00:08:24;12.90;;;9.07;;
5493;SDS011;2769;49.864;8.656;2023-04-29T00:10:52;14.30;;;8.63;;
5493;SDS011;2769;49.864;8.656;2023-04-29T00:13:20;13.00;;;8.40;;
5493;SDS011;2769;49.864;8.656;2023-04-29T00:15:47;9.20;;;8.30;;
5493;SDS011;2769;49.864;8.656;2023-04-29T00:18:16;9.30;;;8.30;;
5493;SDS011;2769;49.864;8.656;2023-04-29T00:20:44;12.50;;;8.00;;
5493;SDS011;2769;49.864;8.656;2023-04-29T00:23:12;11.63;;;8.97;;
5493;SDS011;2769;49.864;8.656;2023-04-29T00:25:44;9.57;;;8.20;;
5493;SDS011;2769;49.864;8.656;2023-04-29T00:28:12;11.63;;;8.30;;
5493;SDS011;2769;49.864;8.656;2023-04-29T00:30:39;10.27;;;7.70;;
5493;SDS011;2769;49.864;8.656;2023-04-29T00:33:07;10.73;;;7.80;;
5493;SDS011;2769;49.864;8.656;2023-04-29T00:35:36;11.10;;;7.70;;
5493;SDS011;2769;49.864;8.656;2023-04-29T00:38:04;9.10;;;7.83;;
5493;SDS011;2769;49.864;8.656;2023-04-29T00:40:32;8.47;;;7.60;;
5493;SDS011;2769;49.864;8.656;2023-04-29T00:43:02;13.07;;;8.30;;
5493;SDS011;2769;49.864;8.656;2023-04-29T00:45:31;9.37;;;8.13;;
5493;SDS011;2769;49.864;8.656;2023-04-29T00:47:59;11.10;;;7.70;;
5493;SDS011;2769;49.864;8.656;2023-04-29T00:50:27;8.33;;;7.53;;
5493;SDS011;2769;49.864;8.656;2023-04-29T00:52:56;12.93;;;7.67;;
5493;SDS011;2769;49.864;8.656;2023-04-29T00:55:24;11.03;;;8.23;;
5493;SDS011;2769;49.864;8.656;2023-04-29T00:57:52;8.57;;;7.63;;
5493;SDS011;2769;49.864;8.656;2023-04-29T01:00:22;9.70;;;8.67;;
5493;SDS011;2769;49.864;8.656;2023-04-29T01:02:50;8.57;;;7.77;;
5493;SDS011;2769;49.864;8.656;2023-04-29T01:05:19;12.80;;;7.87;;
5493;SDS011;2769;49.864;8.656;2023-04-29T01:07:49;10.20;;;8.30;;
5493;SDS011;2769;49.864;8.656;2023-04-29T01:10:25;10.17;;;7.77;;
5493;SDS011;2769;49.864;8.656;2023-04-29T01:12:58;10.20;;;7.53;;
5493;SDS011;2769;49.864;8.656;2023-04-29T01:15:33;8.03;;;7.33;;
5493;SDS011;2769;49.864;8.656;2023-04-29T01:18:09;10.90;;;7.40;;
5493;SDS011;2769;49.864;8.656;2023-04-29T01:20:41;9.27;;;7.20;;
5493;SDS011;2769;49.864;8.656;2023-04-29T01:23:10;9.47;;;7.30;;
5493;SDS011;2769;49.864;8.656;2023-04-29T01:25:40;13.03;;;7.67;;
5493;SDS011;2769;49.864;8.656;2023-04-29T01:28:39;7.97;;;7.27;;
5493;SDS011;2769;49.864;8.656;2023-04-29T01:31:12;10.70;;;7.63;;
5493;SDS011;2769;49.864;8.656;2023-04-29T01:33:43;8.70;;;7.90;;
5493;SDS011;2769;49.864;8.656;2023-04-29T01:36:17;10.63;;;8.07;;
5493;SDS011;2769;49.864;8.656;2023-04-29T01:38:52;8.67;;;7.67;;
5493;SDS011;2769;49.864;8.656;2023-04-29T01:41:26;8.60;;;7.70;;
5493;SDS011;2769;49.864;8.656;2023-04-29T01:44:08;8.93;;;7.90;;
5493;SDS011;2769;49.864;8.656;2023-04-29T01:46:40;9.50;;;7.97;;
5493;SDS011;2769;49.864;8.656;2023-04-29T01:49:10;14.00;;;7.20;;
5493;SDS011;2769;49.864;8.656;2023-04-29T01:51:39;9.10;;;8.20;;
5493;SDS011;2769;49.864;8.656;2023-04-29T01:54:07;8.70;;;7.63;;
5493;SDS011;2769;49.864;8.656;2023-04-29T01:56:36;8.13;;;7.33;;
5493;SDS011;2769;49.864;8.656;2023-04-29T01:59:18;8.80;;;8.00;;
5493;SDS011;2769;49.864;8.656;2023-04-29T02:01:56;8.70;;;7.80;;
5493;SDS011;2769;49.864;8.656;2023-04-29T02:04:25;10.93;;;7.57;;
5493;SDS011;2769;49.864;8.656;2023-04-29T02:06:53;8.20;;;7.33;;
5493;SDS011;2769;49.864;8.656;2023-04-29T02:09:21;7.50;;;6.73;;
5493;SDS011;2769;49.864;8.656;2023-04-29T02:11:54;8.03;;;7.23;;
5493;SDS011;2769;49.864;8.656;2023-04-29T02:14:22;8.30;;;7.40;;
5493;SDS011;2769;49.864;8.656;2023-04-29T02:16:50;6.70;;;6.20;;
5493;SDS011;2769;49.864;8.656;2023-04-29T02:19:18;8.30;;;7.13;;
5493;SDS011;2769;49.864;8.656;2023-04-29T02:21:49;7.03;;;6.43;;
5493;SDS011;2769;49.864;8.656;2023-04-29T02:24:17;7.20;;;6.50;;
5493;SDS011;2769;49.864;8.656;2023-04-29T02:26:46;13.27;;;6.63;;
5493;SDS011;2769;49.864;8.656;2023-04-29T02:29:15;7.50;;;6.80;;
5493;SDS011;2769;49.864;8.656;2023-04-29T02:31:43;9.10;;;7.13;;
5493;SDS011;2769;49.864;8.656;2023-04-29T02:34:11;6.73;;;6.07;;
5493;SDS011;2769;49.864;8.656;2023-04-29T02:36:39;7.70;;;7.00;;
5493;SDS011;2769;49.864;8.656;2023-04-29T02:39:07;7.83;;;6.43;;
5493;SDS011;2769;49.864;8.656;2023-04-29T02:41:35;6.37;;;5.80;;
5493;SDS011;2769;49.864;8.656;2023-04-29T02:44:03;7.17;;;6.20;;
5493;SDS011;2769;49.864;8.656;2023-04-29T02:46:32;6.20;;;5.73;;
5493;SDS011;2769;49.864;8.656;2023-04-29T02:49:02;6.03;;;5.53;;
5493;SDS011;2769;49.864;8.656;2023-04-29T02:51:30;7.00;;;6.30;;
5493;SDS011;2769;49.864;8.656;2023-04-29T02:53:58;6.30;;;5.70;;
5493;SDS011;2769;49.864;8.656;2023-04-29T02:56:26;6.33;;;5.83;;
5493;SDS011;2769;49.864;8.656;2023-04-29T02:58:55;6.70;;;6.10;;
5493;SDS011;2769;49.864;8.656;2023-04-29T03:01:22;6.30;;;5.70;;
5493;SDS011;2769;49.864;8.656;2023-04-29T03:03:52;6.60;;;6.07;;
5493;SDS011;2769;49.864;8.656;2023-04-29T03:06:20;6.27;;;5.77;;
5493;SDS011;2769;49.864;8.656;2023-04-29T03:08:49;5.60;;;5.20;;
5493;SDS011;2769;49.864;8.656;2023-04-29T03:11:18;6.53;;;5.13;;
5493;SDS011;2769;49.864;8.656;2023-04-29T03:13:46;5.70;;;5.30;;
5493;SDS011;2769;49.864;8.656;2023-04-29T03:16:14;6.23;;;5.10;;
5493;SDS011;2769;49.864;8.656;2023-04-29T03:18:42;4.80;;;4.50;;
5493;SDS011;2769;49.864;8.656;2023-04-29T03:21:12;5.80;;;5.30;;
5493;SDS011;2769;49.864;8.656;2023-04-29T03:23:40;5.00;;;4.70;;
5493;SDS011;2769;49.864;8.656;2023-04-29T03:26:11;6.07;;;5.03;;
5493;SDS011;2769;49.864;8.656;2023-04-29T03:28:39;5.90;;;4.80;;
5493;SDS011;2769;49.864;8.656;2023-04-29T03:31:07;5.60;;;5.20;;
5493;SDS011;2769;49.864;8.656;2023-04-29T03:33:40;6.03;;;5.13;;
5493;SDS011;2769;49.864;8.656;2023-04-29T03:36:08;5.70;;;5.30;;
5493;SDS011;2769;49.864;8.656;2023-04-29T03:38:44;7.73;;;5.60;;
5493;SDS011;2769;49.864;8.656;2023-04-29T03:41:14;5.20;;;4.90;;
5493;SDS011;2769;49.864;8.656;2023-04-29T03:43:42;5.00;;;4.70;;
5493;SDS011;2769;49.864;8.656;2023-04-29T03:46:10;5.50;;;5.00;;
5493;SDS011;2769;49.864;8.656;2023-04-29T03:48:38;4.90;;;4.60;;
5493;SDS011;2769;49.864;8.656;2023-04-29T03:51:06;5.70;;;5.20;;
5493;SDS011;2769;49.864;8.656;2023-04-29T03:53:34;4.83;;;4.53;;
5493;SDS011;2769;49.864;8.656;2023-04-29T03:56:05;4.87;;;4.43;;
5493;SDS011;2769;49.864;8.656;2023-04-29T03:58:33;5.50;;;5.10;;
5493;SDS011;2769;49.864;8.656;2023-04-29T04:01:01;4.93;;;4.53;;
5493;SDS011;2769;49.864;8.656;2023-04-29T04:03:37;5.10;;;4.70;;
5493;SDS011;2769;49.864;8.656;2023-04-29T04:06:05;4.93;;;4.53;;
5493;SDS011;2769;49.864;8.656;2023-04-29T04:08:33;5.87;;;5.40;;
5493;SDS011;2769;49.864;8.656;2023-04-29T04:11:08;4.97;;;4.57;;
5493;SDS011;2769;49.864;8.656;2023-04-29T04:13:41;4.27;;;4.07;;
5493;SDS011;2769;49.864;8.656;2023-04-29T04:16:10;4.50;;;4.13;;
5493;SDS011;2769;49.864;8.656;2023-04-29T04:18:39;4.80;;;4.47;;
5493;SDS011;2769;49.864;8.656;2023-04-29T04:21:08;4.53;;;4.23;;
5493;SDS011;2769;49.864;8.656;2023-04-29T04:23:47;8.70;;;4.20;;
5493;SDS011;2769;49.864;8.656;2023-04-29T04:26:28;4.07;;;3.87;;
5493;SDS011;2769;49.864;8.656;2023-04-29T04:29:11;4.37;;;4.10;;
5493;SDS011;2769;49.864;8.656;2023-04-29T04:31:47;4.80;;;4.40;;
5493;SDS011;2769;49.864;8.656;2023-04-29T04:34:17;4.60;;;3.87;;
5493;SDS011;2769;49.864;8.656;2023-04-29T04:36:48;4.73;;;4.27;;
5493;SDS011;2769;49.864;8.656;2023-04-29T04:39:16;4.07;;;3.77;;
5493;SDS011;2769;49.864;8.656;2023-04-29T04:41:45;4.10;;;3.90;;
5493;SDS011;2769;49.864;8.656;2023-04-29T04:44:13;4.20;;;3.80;;
5493;SDS011;2769;49.864;8.656;2023-04-29T04:46:58;3.70;;;3.47;;
5493;SDS011;2769;49.864;8.656;2023-04-29T04:49:46;4.10;;;3.80;;
5493;SDS011;2769;49.864;8.656;2023-04-29T04:52:15;3.70;;;3.40;;
5493;SDS011;2769;49.864;8.656;2023-04-29T04:54:48;4.20;;;3.90;;
5493;SDS011;2769;49.864;8.656;2023-04-29T04:57:22;7.60;;;3.90;;
5493;SDS011;2769;49.864;8.656;2023-04-29T04:59:53;3.70;;;3.50;;
5493;SDS011;2769;49.864;8.656;2023-04-29T05:02:21;4.17;;;3.93;;
5493;SDS011;2769;49.864;8.656;2023-04-29T05:04:49;4.23;;;3.77;;
5493;SDS011;2769;49.864;8.656;2023-04-29T05:07:18;3.90;;;3.60;;
5493;SDS011;2769;49.864;8.656;2023-04-29T05:09:59;7.57;;;4.67;;
5493;SDS011;2769;49.864;8.656;2023-04-29T05:12:28;4.43;;;4.10;;
5493;SDS011;2769;49.864;8.656;2023-04-29T05:14:58;4.93;;;4.63;;
5493;SDS011;2769;49.864;8.656;2023-04-29T05:17:27;4.50;;;4.13;;
5493;SDS011;2769;49.864;8.656;2023-04-29T05:19:55;7.57;;;4.70;;
5493;SDS011;2769;49.864;8.656;2023-04-29T05:22:23;4.87;;;4.57;;
5493;SDS011;2769;49.864;8.656;2023-04-29T05:24:51;8.50;;;4.90;;
5493;SDS011;2769;49.864;8.656;2023-04-29T05:27:20;5.03;;;4.60;;
5493;SDS011;2769;49.864;8.656;2023-04-29T05:29:49;5.27;;;4.80;;
5493;SDS011;2769;49.864;8.656;2023-04-29T05:32:18;5.30;;;4.80;;
5493;SDS011;2769;49.864;8.656;2023-04-29T05:34:46;5.60;;;5.00;;
5493;SDS011;2769;49.864;8.656;2023-04-29T05:37:14;4.90;;;4.50;;
5493;SDS011;2769;49.864;8.656;2023-04-29T05:39:58;5.97;;;5.50;;
5493;SDS011;2769;49.864;8.656;2023-04-29T05:42:26;5.63;;;5.20;;
5493;SDS011;2769;49.864;8.656;2023-04-29T05:44:55;5.80;;;5.17;;
5493;SDS011;2769;49.864;8.656;2023-04-29T05:47:23;6.40;;;5.90;;
5493;SDS011;2769;49.864;8.656;2023-04-29T05:49:51;6.47;;;5.93;;
5493;SDS011;2769;49.864;8.656;2023-04-29T05:52:19;9.53;;;6.97;;
5493;SDS011;2769;49.864;8.656;2023-04-29T05:54:48;7.67;;;6.97;;
5493;SDS011;2769;49.864;8.656;2023-04-29T05:57:16;11.77;;;7.57;;
5493;SDS011;2769;49.864;8.656;2023-04-29T05:59:44;8.90;;;7.10;;
5493;SDS011;2769;49.864;8.656;2023-04-29T06:02:13;8.50;;;7.70;;
5493;SDS011;2769;49.864;8.656;2023-04-29T06:04:42;13.83;;;8.17;;
5493;SDS011;2769;49.864;8.656;2023-04-29T06:07:25;12.50;;;9.83;;
5493;SDS011;2769;49.864;8.656;2023-04-29T06:09:57;14.40;;;11.10;;
5493;SDS011;2769;49.864;8.656;2023-04-29T06:12:26;14.57;;;10.20;;
5493;SDS011;2769;49.864;8.656;2023-04-29T06:14:56;14.03;;;10.13;;
5493;SDS011;2769;49.864;8.656;2023-04-29T06:17:25;12.83;;;10.57;;
5493;SDS011;2769;49.864;8.656;2023-04-29T06:19:54;16.13;;;11.87;;
5493;SDS011;2769;49.864;8.656;2023-04-29T06:22:22;20.03;;;12.50;;
5493;SDS011;2769;49.864;8.656;2023-04-29T06:24:52;13.67;;;10.70;;
5493;SDS011;2769;49.864;8.656;2023-04-29T06:27:52;18.17;;;11.40;;
5493;SDS011;2769;49.864;8.656;2023-04-29T06:30:23;15.00;;;10.83;;
5493;SDS011;2769;49.864;8.656;2023-04-29T06:32:52;16.83;;;11.17;;
5493;SDS011;2769;49.864;8.656;2023-04-29T06:35:20;15.77;;;12.00;;
5493;SDS011;2769;49.864;8.656;2023-04-29T06:38:02;17.70;;;10.63;;
5493;SDS011;2769;49.864;8.656;2023-04-29T06:40:40;12.20;;;10.03;;
5493;SDS011;2769;49.864;8.656;2023-04-29T06:43:39;12.70;;;10.10;;
5493;SDS011;2769;49.864;8.656;2023-04-29T06:46:27;13.50;;;9.80;;
5493;SDS011;2769;49.864;8.656;2023-04-29T06:49:03;13.17;;;10.30;;
5493;SDS011;2769;49.864;8.656;2023-04-29T06:51:32;11.97;;;9.60;;
5493;SDS011;2769;49.864;8.656;2023-04-29T06:54:01;13.40;;;9.47;;
5493;SDS011;2769;49.864;8.656;2023-04-29T06:56:29;12.27;;;9.13;;
5493;SDS011;2769;49.864;8.656;2023-04-29T06:58:56;11.90;;;8.70;;
5493;SDS011;2769;49.864;8.656;2023-04-29T07:01:24;11.63;;;8.60;;
5493;SDS011;2769;49.864;8.656;2023-04-29T07:03:52;13.30;;;8.70;;
5493;SDS011;2769;49.864;8.656;2023-04-29T07:06:21;11.77;;;7.40;;
5493;SDS011;2769;49.864;8.656;2023-04-29T07:08:52;10.20;;;8.10;;
5493;SDS011;2769;49.864;8.656;2023-04-29T07:11:22;10.70;;;7.30;;
5493;SDS011;2769;49.864;8.656;2023-04-29T07:13:52;10.33;;;8.07;;
5493;SDS011;2769;49.864;8.656;2023-04-29T07:16:20;10.07;;;7.50;;
5493;SDS011;2769;49.864;8.656;2023-04-29T07:18:51;10.53;;;7.40;;
5493;SDS011;2769;49.864;8.656;2023-04-29T07:21:19;11.30;;;7.70;;
5493;SDS011;2769;49.864;8.656;2023-04-29T07:23:49;9.60;;;7.27;;
5493;SDS011;2769;49.864;8.656;2023-04-29T07:26:17;8.80;;;6.40;;
5493;SDS011;2769;49.864;8.656;2023-04-29T07:28:45;6.70;;;6.00;;
5493;SDS011;2769;49.864;8.656;2023-04-29T07:31:13;8.03;;;6.70;;
5493;SDS011;2769;49.864;8.656;2023-04-29T07:33:42;8.47;;;6.30;;
5493;SDS011;2769;49.864;8.656;2023-04-29T07:36:12;11.30;;;6.73;;
5493;SDS011;2769;49.864;8.656;2023-04-29T07:38:41;8.00;;;6.17;;
5493;SDS011;2769;49.864;8.656;2023-04-29T07:41:09;6.67;;;5.90;;
5493;SDS011;2769;49.864;8.656;2023-04-29T07:43:37;9.30;;;5.50;;
5493;SDS011;2769;49.864;8.656;2023-04-29T07:46:08;8.67;;;6.40;;
5493;SDS011;2769;49.864;8.656;2023-04-29T07:48:36;6.43;;;5.80;;
5493;SDS011;2769;49.864;8.656;2023-04-29T07:51:04;6.33;;;5.20;;
5493;SDS011;2769;49.864;8.656;2023-04-29T07:53:34;6.87;;;5.30;;
5493;SDS011;2769;49.864;8.656;2023-04-29T07:56:05;6.13;;;5.53;;
5493;SDS011;2769;49.864;8.656;2023-04-29T07:58:33;6.03;;;5.07;;
5493;SDS011;2769;49.864;8.656;2023-04-29T08:01:05;7.40;;;5.40;;
5493;SDS011;2769;49.864;8.656;2023-04-29T08:03:34;8.03;;;5.77;;
5493;SDS011;2769;49.864;8.656;2023-04-29T08:06:06;6.80;;;5.47;;
5493;SDS011;2769;49.864;8.656;2023-04-29T08:08:35;5.33;;;4.83;;
5493;SDS011;2769;49.864;8.656;2023-04-29T08:11:04;7.37;;;5.47;;
5493;SDS011;2769;49.864;8.656;2023-04-29T08:13:36;6.17;;;5.47;;
5493;SDS011;2769;49.864;8.656;2023-04-29T08:16:04;5.60;;;4.73;;
5493;SDS011;2769;49.864;8.656;2023-04-29T08:18:35;4.77;;;4.37;;
5493;SDS011;2769;49.864;8.656;2023-04-29T08:21:03;5.77;;;5.17;;
5493;SDS011;2769;49.864;8.656;2023-04-29T08:23:31;5.40;;;4.90;;
5493;SDS011;2769;49.864;8.656;2023-04-29T08:25:59;8.10;;;5.13;;
5493;SDS011;2769;49.864;8.656;2023-04-29T08:28:29;5.10;;;4.63;;
5493;SDS011;2769;49.864;8.656;2023-04-29T08:30:57;4.40;;;4.00;;
5493;SDS011;2769;49.864;8.656;2023-04-29T08:33:25;4.43;;;4.03;;
5493;SDS011;2769;49.864;8.656;2023-04-29T08:35:57;3.87;;;3.53;;
5493;SDS011;2769;49.864;8.656;2023-04-29T08:38:26;4.93;;;3.90;;
5493;SDS011;2769;49.864;8.656;2023-04-29T08:40:54;4.10;;;3.53;;
5493;SDS011;2769;49.864;8.656;2023-04-29T08:43:22;4.87;;;4.20;;
5493;SDS011;2769;49.864;8.656;2023-04-29T08:45:52;4.40;;;4.00;;
5493;SDS011;2769;49.864;8.656;2023-04-29T08:48:20;4.77;;;4.37;;
5493;SDS011;2769;49.864;8.656;2023-04-29T08:50:48;4.90;;;4.17;;
5493;SDS011;2769;49.864;8.656;2023-04-29T08:53:16;4.90;;;4.43;;
5493;SDS011;2769;49.864;8.656;2023-04-29T08:55:45;4.47;;;4.17;;
5493;SDS011;2769;49.864;8.656;2023-04-29T08:58:13;4.50;;;4.10;;
5493;SDS011;2769;49.864;8.656;2023-04-29T09:00:42;4.40;;;4.10;;
5493;SDS011;2769;49.864;8.656;2023-04-29T09:03:13;4.27;;;3.97;;
5493;SDS011;2769;49.864;8.656;2023-04-29T09:05:47;6.77;;;4.10;;
5493;SDS011;2769;49.864;8.656;2023-04-29T09:08:16;4.60;;;4.20;;
5493;SDS011;2769;49.864;8.656;2023-04-29T09:10:44;4.20;;;3.90;;
5493;SDS011;2769;49.864;8.656;2023-04-29T09:13:21;4.87;;;4.50;;
5493;SDS011;2769;49.864;8.656;2023-04-29T09:15:49;12.23;;;4.70;;
5493;SDS011;2769;49.864;8.656;2023-04-29T09:21:13;4.80;;;4.40;;
5493;SDS011;2769;49.864;8.656;2023-04-29T09:23:41;7.07;;;5.00;;
5493;SDS011;2769;49.864;8.656;2023-04-29T09:26:09;5.73;;;4.93;;
5493;SDS011;2769;49.864;8.656;2023-04-29T09:28:37;5.63;;;4.87;;
5493;SDS011;2769;49.864;8.656;2023-04-29T09:31:09;6.80;;;5.60;;
5493;SDS011;2769;49.864;8.656;2023-04-29T09:33:51;4.80;;;4.40;;
5493;SDS011;2769;49.864;8.656;2023-04-29T09:36:36;5.47;;;4.60;;
5493;SDS011;2769;49.864;8.656;2023-04-29T09:39:05;5.60;;;5.10;;
5493;SDS011;2769;49.864;8.656;2023-04-29T09:41:37;5.10;;;4.60;;
5493;SDS011;2769;49.864;8.656;2023-04-29T09:44:07;5.37;;;4.87;;
5493;SDS011;2769;49.864;8.656;2023-04-29T09:46:36;5.10;;;4.67;;
5493;SDS011;2769;49.864;8.656;2023-04-29T09:49:20;6.07;;;5.47;;
5493;SDS011;2769;49.864;8.656;2023-04-29T09:51:54;5.70;;;5.10;;
5493;SDS011;2769;49.864;8.656;2023-04-29T09:54:23;7.10;;;5.70;;
5493;SDS011;2769;49.864;8.656;2023-04-29T09:56:54;5.37;;;4.77;;
5493;SDS011;2769;49.864;8.656;2023-04-29T09:59:23;4.97;;;4.47;;
5493;SDS011;2769;49.864;8.656;2023-04-29T10:01:52;5.20;;;4.70;;
5493;SDS011;2769;49.864;8.656;2023-04-29T10:04:22;6.10;;;4.97;;
5493;SDS011;2769;49.864;8.656;2023-04-29T10:06:53;5.90;;;5.30;;
5493;SDS011;2769;49.864;8.656;2023-04-29T10:09:22;5.47;;;4.93;;
5493;SDS011;2769;49.864;8.656;2023-04-29T10:11:50;5.00;;;4.50;;
5493;SDS011;2769;49.864;8.656;2023-04-29T10:14:19;5.33;;;4.70;;
5493;SDS011;2769;49.864;8.656;2023-04-29T10:16:48;4.77;;;4.30;;
5493;SDS011;2769;49.864;8.656;2023-04-29T10:19:18;4.90;;;4.50;;
5493;SDS011;2769;49.864;8.656;2023-04-29T10:21:49;6.27;;;4.90;;
5493;SDS011;2769;49.864;8.656;2023-04-29T10:24:17;5.47;;;5.00;;
5493;SDS011;2769;49.864;8.656;2023-04-29T10:26:46;4.93;;;4.43;;
5493;SDS011;2769;49.864;8.656;2023-04-29T10:29:16;5.80;;;5.20;;
5493;SDS011;2769;49.864;8.656;2023-04-29T10:31:44;5.60;;;5.10;;
5493;SDS011;2769;49.864;8.656;2023-04-29T10:34:15;5.97;;;5.03;;
5493;SDS011;2769;49.864;8.656;2023-04-29T10:36:43;4.93;;;4.53;;
5493;SDS011;2769;49.864;8.656;2023-04-29T10:39:15;4.50;;;4.20;;
5493;SDS011;2769;49.864;8.656;2023-04-29T10:41:49;5.53;;;5.03;;
5493;SDS011;2769;49.864;8.656;2023-04-29T10:44:17;5.70;;;3.97;;
5493;SDS011;2769;49.864;8.656;2023-04-29T10:46:45;3.60;;;3.40;;
5493;SDS011;2769;49.864;8.656;2023-04-29T10:49:13;4.97;;;4.50;;
5493;SDS011;2769;49.864;8.656;2023-04-29T10:51:42;5.67;;;4.60;;
5493;SDS011;2769;49.864;8.656;2023-04-29T10:54:11;7.67;;;4.00;;
5493;SDS011;2769;49.864;8.656;2023-04-29T10:56:43;4.33;;;4.00;;
5493;SDS011;2769;49.864;8.656;2023-04-29T10:59:14;4.53;;;4.13;;
5493;SDS011;2769;49.864;8.656;2023-04-29T11:01:44;3.83;;;3.43;;
5493;SDS011;2769;49.864;8.656;2023-04-29T11:04:13;6.20;;;4.60;;
5493;SDS011;2769;49.864;8.656;2023-04-29T11:06:43;4.00;;;3.60;;
5493;SDS011;2769;49.864;8.656;2023-04-29T11:09:18;3.60;;;3.23;;
5493;SDS011;2769;49.864;8.656;2023-04-29T11:11:53;3.93;;;3.63;;
5493;SDS011;2769;49.864;8.656;2023-04-29T11:14:24;4.23;;;3.93;;
5493;SDS011;2769;49.864;8.656;2023-04-29T11:16:55;4.60;;;4.23;;
5493;SDS011;2769;49.864;8.656;2023-04-29T11:19:25;4.50;;;4.10;;
5493;SDS011;2769;49.864;8.656;2023-04-29T11:22:09;6.63;;;4.90;;
5493;SDS011;2769;49.864;8.656;2023-04-29T11:24:51;5.70;;;5.10;;
5493;SDS011;2769;49.864;8.656;2023-04-29T11:27:23;9.67;;;6.20;;
5493;SDS011;2769;49.864;8.656;2023-04-29T11:29:53;8.27;;;5.83;;
5493;SDS011;2769;49.864;8.656;2023-04-29T11:32:28;6.10;;;5.50;;
5493;SDS011;2769;49.864;8.656;2023-04-29T11:35:06;6.90;;;5.63;;
5493;SDS011;2769;49.864;8.656;2023-04-29T11:37:35;6.33;;;5.73;;
5493;SDS011;2769;49.864;8.656;2023-04-29T11:40:05;5.20;;;4.80;;
5493;SDS011;2769;49.864;8.656;2023-04-29T11:42:34;5.07;;;4.67;;
5493;SDS011;2769;49.864;8.656;2023-04-29T11:45:02;5.20;;;4.70;;
5493;SDS011;2769;49.864;8.656;2023-04-29T11:47:31;5.07;;;4.67;;
5493;SDS011;2769;49.864;8.656;2023-04-29T11:50:02;5.27;;;4.87;;
5493;SDS011;2769;49.864;8.656;2023-04-29T11:52:31;6.00;;;5.07;;
5493;SDS011;2769;49.864;8.656;2023-04-29T11:54:59;6.17;;;4.70;;
5493;SDS011;2769;49.864;8.656;2023-04-29T11:57:28;5.57;;;5.03;;
5493;SDS011;2769;49.864;8.656;2023-04-29T11:59:56;4.93;;;4.53;;
5493;SDS011;2769;49.864;8.656;2023-04-29T12:02:27;5.83;;;4.90;;
5493;SDS011;2769;49.864;8.656;2023-04-29T12:05:04;4.90;;;4.50;;
5493;SDS011;2769;49.864;8.656;2023-04-29T12:07:33;6.00;;;4.77;;
5493;SDS011;2769;49.864;8.656;2023-04-29T12:10:01;5.53;;;5.00;;
5493;SDS011;2769;49.864;8.656;2023-04-29T12:12:31;6.00;;;5.40;;
5493;SDS011;2769;49.864;8.656;2023-04-29T12:15:01;5.10;;;4.60;;
5493;SDS011;2769;49.864;8.656;2023-04-29T12:17:30;5.00;;;4.60;;
5493;SDS011;2769;49.864;8.656;2023-04-29T12:19:58;4.03;;;3.73;;
5493;SDS011;2769;49.864;8.656;2023-04-29T12:22:29;7.23;;;5.07;;
5493;SDS011;2769;49.864;8.656;2023-04-29T12:24:58;4.83;;;4.40;;
5493;SDS011;2769;49.864;8.656;2023-04-29T12:27:26;4.67;;;3.77;;
5493;SDS011;2769;49.864;8.656;2023-04-29T12:29:55;4.53;;;4.13;;
5493;SDS011;2769;49.864;8.656;2023-04-29T12:32:24;3.73;;;3.53;;
5493;SDS011;2769;49.864;8.656;2023-04-29T12:34:52;3.00;;;2.70;;
5493;SDS011;2769;49.864;8.656;2023-04-29T12:37:21;3.87;;;3.57;;
5493;SDS011;2769;49.864;8.656;2023-04-29T12:39:49;3.70;;;3.50;;
5493;SDS011;2769;49.864;8.656;2023-04-29T12:42:18;3.30;;;3.10;;
5493;SDS011;2769;49.864;8.656;2023-04-29T12:44:46;3.37;;;3.10;;
5493;SDS011;2769;49.864;8.656;2023-04-29T12:47:16;3.50;;;3.30;;
5493;SDS011;2769;49.864;8.656;2023-04-29T12:49:45;3.53;;;3.33;;
5493;SDS011;2769;49.864;8.656;2023-04-29T12:52:14;3.80;;;3.50;;
5493;SDS011;2769;49.864;8.656;2023-04-29T12:54:42;3.37;;;3.07;;
5493;SDS011;2769;49.864;8.656;2023-04-29T12:57:10;3.10;;;2.90;;
5493;SDS011;2769;49.864;8.656;2023-04-29T12:59:39;3.33;;;3.13;;
5493;SDS011;2769;49.864;8.656;2023-04-29T13:02:07;4.30;;;3.90;;
5493;SDS011;2769;49.864;8.656;2023-04-29T13:04:36;9.17;;;6.73;;
5493;SDS011;2769;49.864;8.656;2023-04-29T13:07:05;6.00;;;5.50;;
5493;SDS011;2769;49.864;8.656;2023-04-29T13:09:33;7.07;;;6.30;;
5493;SDS011;2769;49.864;8.656;2023-04-29T13:12:03;6.10;;;5.60;;
5493;SDS011;2769;49.864;8.656;2023-04-29T13:14:35;11.90;;;9.87;;
5493;SDS011;2769;49.864;8.656;2023-04-29T13:17:02;7.03;;;6.40;;
5493;SDS011;2769;49.864;8.656;2023-04-29T13:19:34;6.60;;;4.20;;
5493;SDS011;2769;49.864;8.656;2023-04-29T13:22:18;4.47;;;4.10;;
5493;SDS011;2769;49.864;8.656;2023-04-29T13:24:47;4.23;;;3.90;;
5493;SDS011;2769;49.864;8.656;2023-04-29T13:27:15;4.10;;;3.80;;
5493;SDS011;2769;49.864;8.656;2023-04-29T13:29:43;10.10;;;9.10;;
5493;SDS011;2769;49.864;8.656;2023-04-29T13:32:11;5.80;;;5.40;;
5493;SDS011;2769;49.864;8.656;2023-04-29T13:34:39;4.93;;;4.50;;
5493;SDS011;2769;49.864;8.656;2023-04-29T13:37:09;5.63;;;5.13;;
5493;SDS011;2769;49.864;8.656;2023-04-29T13:39:38;5.33;;;4.90;;
5493;SDS011;2769;49.864;8.656;2023-04-29T13:42:11;3.40;;;3.10;;
5493;SDS011;2769;49.864;8.656;2023-04-29T13:44:41;8.23;;;6.40;;
5493;SDS011;2769;49.864;8.656;2023-04-29T13:47:29;4.73;;;4.33;;
5493;SDS011;2769;49.864;8.656;2023-04-29T13:50:00;3.40;;;3.17;;
5493;SDS011;2769;49.864;8.656;2023-04-29T13:52:48;2.90;;;2.80;;
5493;SDS011;2769;49.864;8.656;2023-04-29T13:55:28;3.43;;;3.23;;
5493;SDS011;2769;49.864;8.656;2023-04-29T13:57:58;3.63;;;3.10;;
5493;SDS011;2769;49.864;8.656;2023-04-29T14:00:46;3.00;;;2.90;;
5493;SDS011;2769;49.864;8.656;2023-04-29T14:03:17;3.93;;;2.70;;
5493;SDS011;2769;49.864;8.656;2023-04-29T14:05:46;3.60;;;3.40;;
5493;SDS011;2769;49.864;8.656;2023-04-29T14:08:14;3.70;;;3.40;;
5493;SDS011;2769;49.864;8.656;2023-04-29T14:10:43;4.13;;;3.83;;
5493;SDS011;2769;49.864;8.656;2023-04-29T14:13:11;3.27;;;3.07;;
5493;SDS011;2769;49.864;8.656;2023-04-29T14:15:39;4.13;;;3.73;;
5493;SDS011;2769;49.864;8.656;2023-04-29T14:18:07;4.13;;;3.83;;
5493;SDS011;2769;49.864;8.656;2023-04-29T14:20:37;4.07;;;3.60;;
5493;SDS011;2769;49.864;8.656;2023-04-29T14:23:04;3.87;;;3.53;;
5493;SDS011;2769;49.864;8.656;2023-04-29T14:25:32;3.53;;;3.23;;
5493;SDS011;2769;49.864;8.656;2023-04-29T14:28:01;4.20;;;3.90;;
5493;SDS011;2769;49.864;8.656;2023-04-29T14:30:29;3.83;;;3.47;;
5493;SDS011;2769;49.864;8.656;2023-04-29T14:32:57;3.70;;;3.50;;
5493;SDS011;2769;49.864;8.656;2023-04-29T14:35:25;3.90;;;3.53;;
5493;SDS011;2769;49.864;8.656;2023-04-29T14:37:53;4.17;;;3.40;;
5493;SDS011;2769;49.864;8.656;2023-04-29T14:40:24;3.70;;;3.40;;
5493;SDS011;2769;49.864;8.656;2023-04-29T14:42:53;3.80;;;3.50;;
5493;SDS011;2769;49.864;8.656;2023-04-29T14:45:22;4.57;;;3.37;;
5493;SDS011;2769;49.864;8.656;2023-04-29T14:47:50;3.97;;;3.67;;
5493;SDS011;2769;49.864;8.656;2023-04-29T14:50:18;3.50;;;3.20;;
5493;SDS011;2769;49.864;8.656;2023-04-29T14:52:48;3.83;;;3.40;;
5493;SDS011;2769;49.864;8.656;2023-04-29T14:55:16;3.20;;;3.00;;
5493;SDS011;2769;49.864;8.656;2023-04-29T14:57:44;4.00;;;3.60;;
5493;SDS011;2769;49.864;8.656;2023-04-29T15:00:13;3.57;;;3.33;;
5493;SDS011;2769;49.864;8.656;2023-04-29T15:02:43;3.77;;;3.47;;
5493;SDS011;2769;49.864;8.656;2023-04-29T15:05:10;4.10;;;3.80;;
5493;SDS011;2769;49.864;8.656;2023-04-29T15:07:38;3.07;;;2.90;;
5493;SDS011;2769;49.864;8.656;2023-04-29T15:10:07;4.30;;;3.03;;
5493;SDS011;2769;49.864;8.656;2023-04-29T15:12:36;2.63;;;2.43;;
5493;SDS011;2769;49.864;8.656;2023-04-29T15:15:04;2.50;;;2.40;;
5493;SDS011;2769;49.864;8.656;2023-04-29T15:17:33;2.70;;;2.60;;
5493;SDS011;2769;49.864;8.656;2023-04-29T15:20:02;5.30;;;2.70;;
5493;SDS011;2769;49.864;8.656;2023-04-29T15:22:31;2.67;;;2.47;;
5493;SDS011;2769;49.864;8.656;2023-04-29T15:24:59;2.30;;;2.20;;
5493;SDS011;2769;49.864;8.656;2023-04-29T15:27:27;2.57;;;2.40;;
5493;SDS011;2769;49.864;8.656;2023-04-29T15:29:55;2.53;;;2.33;;
5493;SDS011;2769;49.864;8.656;2023-04-29T15:32:23;2.90;;;2.70;;
5493;SDS011;2769;49.864;8.656;2023-04-29T15:34:56;2.80;;;2.60;;